HZ101 OESD-OEGS
Flight info
| Callsign | HZ101 |
|---|---|
| Flight time | N/A |
| Altitude | 22000 |
| Route | KSB B417 GAS |
| Aircraft | B737/M-SDE2E3FGHIRWXY/LB1 |
Departure
| Time | N/A |
|---|---|
| Airport | OESD |
Arrival
| Time | 2026-04-20 18:53 |
|---|---|
| Airport | Prince Naif bin Abdulaziz International Airport (OEGS) |
| Time | Latitude | Longitude | Altitude | Speed | Heading |
|---|---|---|---|---|---|
| 2026-04-20 17:53 | 27.91099 | 45.52198 | 1369 ft | 0 kts | 38° |
| 2026-04-20 18:06 | 27.91087 | 45.52188 | 1369 ft | 2 kts | 38° |
| 2026-04-20 18:06 | 27.91074 | 45.52176 | 1368 ft | 2 kts | 38° |
| 2026-04-20 18:06 | 27.91061 | 45.52165 | 1369 ft | 2 kts | 38° |
| 2026-04-20 18:07 | 27.91049 | 45.52153 | 1369 ft | 2 kts | 38° |
| 2026-04-20 18:07 | 27.91036 | 45.52142 | 1369 ft | 2 kts | 37° |
| 2026-04-20 18:07 | 27.91024 | 45.52129 | 1369 ft | 2 kts | 55° |
| 2026-04-20 18:07 | 27.91016 | 45.52113 | 1369 ft | 2 kts | 70° |
| 2026-04-20 18:08 | 27.91013 | 45.52095 | 1368 ft | 2 kts | 105° |
| 2026-04-20 18:08 | 27.91014 | 45.52091 | 1369 ft | 0 kts | 123° |
| 2026-04-20 18:12 | 27.91012 | 45.52094 | 1369 ft | 1 kts | 123° |
| 2026-04-20 18:13 | 27.90990 | 45.52121 | 1369 ft | 9 kts | 135° |
| 2026-04-20 18:13 | 27.90930 | 45.52190 | 1369 ft | 15 kts | 131° |
| 2026-04-20 18:13 | 27.90857 | 45.52290 | 1369 ft | 18 kts | 130° |
| 2026-04-20 18:13 | 27.90770 | 45.52407 | 1369 ft | 20 kts | 130° |
| 2026-04-20 18:14 | 27.90680 | 45.52525 | 1368 ft | 19 kts | 130° |
| 2026-04-20 18:14 | 27.90593 | 45.52638 | 1367 ft | 19 kts | 130° |
| 2026-04-20 18:14 | 27.90511 | 45.52750 | 1367 ft | 18 kts | 128° |
| 2026-04-20 18:14 | 27.90432 | 45.52858 | 1368 ft | 18 kts | 129° |
| 2026-04-20 18:15 | 27.90353 | 45.52963 | 1369 ft | 17 kts | 130° |
| 2026-04-20 18:15 | 27.90276 | 45.53064 | 1368 ft | 17 kts | 130° |
| 2026-04-20 18:15 | 27.90198 | 45.53168 | 1368 ft | 17 kts | 130° |
| 2026-04-20 18:15 | 27.90120 | 45.53273 | 1367 ft | 18 kts | 129° |
| 2026-04-20 18:16 | 27.90040 | 45.53382 | 1368 ft | 18 kts | 130° |
| 2026-04-20 18:16 | 27.89959 | 45.53491 | 1366 ft | 18 kts | 130° |
| 2026-04-20 18:16 | 27.89880 | 45.53598 | 1368 ft | 18 kts | 129° |
| 2026-04-20 18:16 | 27.89802 | 45.53703 | 1368 ft | 17 kts | 130° |
| 2026-04-20 18:17 | 27.89728 | 45.53804 | 1368 ft | 17 kts | 130° |
| 2026-04-20 18:17 | 27.89654 | 45.53904 | 1368 ft | 16 kts | 130° |
| 2026-04-20 18:17 | 27.89576 | 45.54008 | 1368 ft | 19 kts | 130° |
| 2026-04-20 18:17 | 27.89494 | 45.54118 | 1368 ft | 18 kts | 130° |
| 2026-04-20 18:18 | 27.89415 | 45.54224 | 1367 ft | 17 kts | 129° |
| 2026-04-20 18:18 | 27.89339 | 45.54326 | 1367 ft | 17 kts | 130° |
| 2026-04-20 18:18 | 27.89263 | 45.54415 | 1367 ft | 15 kts | 163° |
| 2026-04-20 18:18 | 27.89176 | 45.54364 | 1366 ft | 14 kts | 222° |
| 2026-04-20 18:19 | 27.89101 | 45.54290 | 1363 ft | 15 kts | 220° |
| 2026-04-20 18:19 | 27.89043 | 45.54231 | 1362 ft | 7 kts | 228° |
| 2026-04-20 18:19 | 27.89049 | 45.54211 | 1362 ft | 3 kts | 316° |
| 2026-04-20 18:19 | 27.89099 | 45.54150 | 1362 ft | 32 kts | 311° |
| 2026-04-20 18:20 | 27.89413 | 45.53727 | 1366 ft | 106 kts | 310° |
| 2026-04-20 18:20 | 27.90021 | 45.52920 | 1457 ft | 153 kts | 311° |
| 2026-04-20 18:20 | 27.90810 | 45.52019 | 1931 ft | 170 kts | 311° |
| 2026-04-20 18:20 | 27.91645 | 45.51072 | 2680 ft | 169 kts | 310° |
| 2026-04-20 18:21 | 27.92484 | 45.50120 | 3354 ft | 177 kts | 310° |
| 2026-04-20 18:21 | 27.93415 | 45.49036 | 3657 ft | 206 kts | 301° |
| 2026-04-20 18:21 | 27.93919 | 45.47497 | 3909 ft | 216 kts | 266° |
| 2026-04-20 18:21 | 27.93535 | 45.45844 | 4150 ft | 224 kts | 233° |
| 2026-04-20 18:22 | 27.92477 | 45.44483 | 4355 ft | 243 kts | 221° |
| 2026-04-20 18:22 | 27.91184 | 45.43174 | 4884 ft | 254 kts | 217° |
| 2026-04-20 18:22 | 27.90178 | 45.42525 | 5515 ft | 250 kts | 200° |
| 2026-04-20 18:22 | 27.88469 | 45.42216 | 6455 ft | 252 kts | 186° |
| 2026-04-20 18:23 | 27.86706 | 45.42012 | 7325 ft | 257 kts | 189° |
| 2026-04-20 18:23 | 27.84905 | 45.41824 | 8087 ft | 265 kts | 187° |
| 2026-04-20 18:23 | 27.83062 | 45.41639 | 8959 ft | 267 kts | 189° |
| 2026-04-20 18:23 | 27.81187 | 45.41419 | 9671 ft | 275 kts | 189° |
| 2026-04-20 18:24 | 27.79305 | 45.41023 | 10457 ft | 279 kts | 203° |
| 2026-04-20 18:24 | 27.76967 | 45.39517 | 10795 ft | 309 kts | 218° |
| 2026-04-20 18:24 | 27.75763 | 45.38528 | 10912 ft | 325 kts | 218° |
| 2026-04-20 18:24 | 27.73891 | 45.36961 | 11219 ft | 343 kts | 219° |
| 2026-04-20 18:25 | 27.71953 | 45.35345 | 11837 ft | 349 kts | 219° |
| 2026-04-20 18:25 | 27.69988 | 45.33720 | 12668 ft | 349 kts | 219° |
| 2026-04-20 18:25 | 27.68019 | 45.32106 | 13473 ft | 351 kts | 219° |
| 2026-04-20 18:25 | 27.66032 | 45.30484 | 14229 ft | 354 kts | 219° |
| 2026-04-20 18:26 | 27.64023 | 45.28849 | 14965 ft | 358 kts | 219° |
| 2026-04-20 18:26 | 27.61994 | 45.27200 | 15717 ft | 361 kts | 219° |
| 2026-04-20 18:26 | 27.59950 | 45.25542 | 16474 ft | 363 kts | 219° |
| 2026-04-20 18:26 | 27.57915 | 45.23892 | 17163 ft | 366 kts | 219° |
| 2026-04-20 18:27 | 27.55884 | 45.22152 | 17827 ft | 367 kts | 224° |
| 2026-04-20 18:27 | 27.54080 | 45.20127 | 18542 ft | 367 kts | 229° |
| 2026-04-20 18:27 | 27.52311 | 45.18046 | 19196 ft | 369 kts | 229° |
| 2026-04-20 18:27 | 27.50524 | 45.15948 | 19802 ft | 372 kts | 229° |
| 2026-04-20 18:28 | 27.48721 | 45.13837 | 20391 ft | 375 kts | 228° |
| 2026-04-20 18:28 | 27.46904 | 45.11718 | 20971 ft | 378 kts | 228° |
| 2026-04-20 18:28 | 27.45068 | 45.09585 | 21542 ft | 380 kts | 228° |
| 2026-04-20 18:28 | 27.43231 | 45.07453 | 21902 ft | 379 kts | 228° |
| 2026-04-20 18:29 | 27.41374 | 45.05299 | 21930 ft | 389 kts | 228° |
| 2026-04-20 18:29 | 27.39467 | 45.03088 | 21944 ft | 398 kts | 228° |
| 2026-04-20 18:29 | 27.37519 | 45.00832 | 21944 ft | 405 kts | 228° |
| 2026-04-20 18:29 | 27.35553 | 44.98558 | 21936 ft | 404 kts | 228° |
| 2026-04-20 18:30 | 27.33600 | 44.96303 | 21936 ft | 402 kts | 228° |
| 2026-04-20 18:30 | 27.31649 | 44.94051 | 21935 ft | 401 kts | 228° |
| 2026-04-20 18:30 | 27.29703 | 44.91806 | 21935 ft | 401 kts | 228° |
| 2026-04-20 18:30 | 27.27757 | 44.89558 | 21936 ft | 401 kts | 228° |
| 2026-04-20 18:31 | 27.25811 | 44.87312 | 21935 ft | 401 kts | 228° |
| 2026-04-20 18:31 | 27.23864 | 44.85066 | 21935 ft | 401 kts | 228° |
| 2026-04-20 18:31 | 27.21918 | 44.82823 | 21932 ft | 401 kts | 228° |
| 2026-04-20 18:31 | 27.19967 | 44.80574 | 21928 ft | 402 kts | 228° |
| 2026-04-20 18:32 | 27.18013 | 44.78325 | 21930 ft | 402 kts | 228° |
| 2026-04-20 18:32 | 27.16062 | 44.76079 | 21923 ft | 402 kts | 228° |
| 2026-04-20 18:32 | 27.14108 | 44.73830 | 21929 ft | 402 kts | 228° |
| 2026-04-20 18:32 | 27.12150 | 44.71578 | 21922 ft | 402 kts | 228° |
| 2026-04-20 18:33 | 27.10227 | 44.69367 | 21847 ft | 388 kts | 228° |
| 2026-04-20 18:33 | 27.08367 | 44.67226 | 21290 ft | 378 kts | 228° |
| 2026-04-20 18:33 | 27.06569 | 44.65155 | 20684 ft | 372 kts | 228° |
| 2026-04-20 18:33 | 27.04779 | 44.63093 | 20017 ft | 367 kts | 228° |
| 2026-04-20 18:34 | 27.03008 | 44.61053 | 19360 ft | 362 kts | 228° |
| 2026-04-20 18:34 | 27.01234 | 44.59013 | 18687 ft | 358 kts | 228° |
| 2026-04-20 18:34 | 26.99532 | 44.57057 | 18062 ft | 354 kts | 228° |
| 2026-04-20 18:34 | 26.97816 | 44.55091 | 17302 ft | 352 kts | 228° |
| 2026-04-20 18:35 | 26.96085 | 44.53113 | 16641 ft | 349 kts | 228° |
| 2026-04-20 18:35 | 26.94394 | 44.51183 | 15997 ft | 345 kts | 227° |
| 2026-04-20 18:35 | 26.92717 | 44.49268 | 15363 ft | 342 kts | 228° |
| 2026-04-20 18:35 | 26.91076 | 44.47394 | 14753 ft | 339 kts | 228° |
| 2026-04-20 18:36 | 26.89429 | 44.45513 | 14149 ft | 336 kts | 228° |
| 2026-04-20 18:36 | 26.87804 | 44.43659 | 13611 ft | 332 kts | 228° |
| 2026-04-20 18:36 | 26.86193 | 44.41820 | 13061 ft | 328 kts | 227° |
| 2026-04-20 18:36 | 26.84596 | 44.39998 | 12464 ft | 327 kts | 227° |
| 2026-04-20 18:37 | 26.83009 | 44.38188 | 11877 ft | 325 kts | 227° |
| 2026-04-20 18:37 | 26.81427 | 44.36384 | 11299 ft | 326 kts | 227° |
| 2026-04-20 18:37 | 26.79830 | 44.34565 | 10917 ft | 324 kts | 227° |
| 2026-04-20 18:37 | 26.78259 | 44.32778 | 10742 ft | 323 kts | 226° |
| 2026-04-20 18:38 | 26.76694 | 44.30998 | 10593 ft | 317 kts | 226° |
| 2026-04-20 18:38 | 26.75171 | 44.29269 | 10396 ft | 306 kts | 226° |
| 2026-04-20 18:38 | 26.73704 | 44.27606 | 10250 ft | 295 kts | 226° |
| 2026-04-20 18:38 | 26.72289 | 44.26002 | 10119 ft | 284 kts | 226° |
| 2026-04-20 18:39 | 26.70925 | 44.24454 | 9978 ft | 275 kts | 226° |
| 2026-04-20 18:39 | 26.69583 | 44.22934 | 9651 ft | 274 kts | 226° |
| 2026-04-20 18:39 | 26.68251 | 44.21423 | 9346 ft | 272 kts | 225° |
| 2026-04-20 18:39 | 26.66929 | 44.19925 | 9034 ft | 270 kts | 225° |
| 2026-04-20 18:40 | 26.65610 | 44.18433 | 8718 ft | 269 kts | 225° |
| 2026-04-20 18:40 | 26.64297 | 44.16946 | 8408 ft | 268 kts | 225° |
| 2026-04-20 18:40 | 26.62987 | 44.15462 | 8089 ft | 269 kts | 224° |
| 2026-04-20 18:40 | 26.61668 | 44.13969 | 7769 ft | 270 kts | 224° |
| 2026-04-20 18:41 | 26.60347 | 44.12474 | 7470 ft | 269 kts | 224° |
| 2026-04-20 18:41 | 26.59036 | 44.10989 | 7195 ft | 268 kts | 224° |
| 2026-04-20 18:41 | 26.57730 | 44.09512 | 6933 ft | 268 kts | 224° |
| 2026-04-20 18:41 | 26.56424 | 44.08038 | 6649 ft | 266 kts | 224° |
| 2026-04-20 18:42 | 26.55125 | 44.06570 | 6360 ft | 264 kts | 224° |
| 2026-04-20 18:42 | 26.53840 | 44.05117 | 6084 ft | 262 kts | 224° |
| 2026-04-20 18:42 | 26.52559 | 44.03672 | 5821 ft | 261 kts | 223° |
| 2026-04-20 18:42 | 26.51287 | 44.02236 | 5535 ft | 259 kts | 223° |
| 2026-04-20 18:43 | 26.50023 | 44.00811 | 5259 ft | 258 kts | 223° |
| 2026-04-20 18:43 | 26.48831 | 43.99330 | 5035 ft | 255 kts | 237° |
| 2026-04-20 18:43 | 26.48424 | 43.97461 | 5009 ft | 251 kts | 276° |
| 2026-04-20 18:43 | 26.49074 | 43.95722 | 5015 ft | 248 kts | 308° |
| 2026-04-20 18:44 | 26.50148 | 43.94220 | 5016 ft | 248 kts | 307° |
| 2026-04-20 18:44 | 26.51140 | 43.92645 | 5010 ft | 249 kts | 302° |
| 2026-04-20 18:44 | 26.52024 | 43.90966 | 5017 ft | 252 kts | 297° |
| 2026-04-20 18:44 | 26.52785 | 43.89205 | 5010 ft | 252 kts | 292° |
| 2026-04-20 18:45 | 26.53423 | 43.87387 | 5003 ft | 251 kts | 288° |
| 2026-04-20 18:45 | 26.53947 | 43.85527 | 5000 ft | 251 kts | 284° |
| 2026-04-20 18:45 | 26.54357 | 43.83639 | 4999 ft | 250 kts | 280° |
| 2026-04-20 18:45 | 26.54650 | 43.81734 | 5001 ft | 247 kts | 276° |
| 2026-04-20 18:46 | 26.54821 | 43.79859 | 5021 ft | 239 kts | 272° |
| 2026-04-20 18:46 | 26.54874 | 43.78025 | 5021 ft | 235 kts | 268° |
| 2026-04-20 18:46 | 26.54819 | 43.76203 | 5012 ft | 233 kts | 264° |
| 2026-04-20 18:46 | 26.54665 | 43.74437 | 4994 ft | 225 kts | 261° |
| 2026-04-20 18:47 | 26.54419 | 43.72733 | 4993 ft | 221 kts | 257° |
| 2026-04-20 18:47 | 26.54080 | 43.71054 | 5003 ft | 222 kts | 253° |
| 2026-04-20 18:47 | 26.53662 | 43.69421 | 4992 ft | 216 kts | 251° |
| 2026-04-20 18:47 | 26.53168 | 43.67866 | 5003 ft | 210 kts | 242° |
| 2026-04-20 18:48 | 26.52200 | 43.66720 | 5008 ft | 200 kts | 206° |
| 2026-04-20 18:48 | 26.50906 | 43.66280 | 5003 ft | 193 kts | 183° |
| 2026-04-20 18:48 | 26.49592 | 43.66447 | 5000 ft | 191 kts | 160° |
| 2026-04-20 18:48 | 26.48372 | 43.67040 | 5012 ft | 192 kts | 153° |
| 2026-04-20 18:49 | 26.47175 | 43.67720 | 5011 ft | 194 kts | 152° |
| 2026-04-20 18:49 | 26.45990 | 43.68403 | 5010 ft | 195 kts | 152° |
| 2026-04-20 18:49 | 26.44786 | 43.69096 | 4965 ft | 196 kts | 152° |
| 2026-04-20 18:49 | 26.43556 | 43.69803 | 4761 ft | 201 kts | 152° |
| 2026-04-20 18:50 | 26.42325 | 43.70508 | 4506 ft | 196 kts | 152° |
| 2026-04-20 18:50 | 26.41150 | 43.71181 | 4237 ft | 184 kts | 152° |
| 2026-04-20 18:50 | 26.40050 | 43.71813 | 4011 ft | 174 kts | 152° |
| 2026-04-20 18:50 | 26.38986 | 43.72424 | 3786 ft | 170 kts | 152° |
| 2026-04-20 18:51 | 26.37941 | 43.73024 | 3556 ft | 169 kts | 152° |
| 2026-04-20 18:51 | 26.36939 | 43.73597 | 3342 ft | 155 kts | 152° |
| 2026-04-20 18:51 | 26.36010 | 43.74131 | 3135 ft | 147 kts | 152° |
| 2026-04-20 18:51 | 26.35107 | 43.74651 | 2947 ft | 146 kts | 152° |
| 2026-04-20 18:52 | 26.34193 | 43.75165 | 2763 ft | 148 kts | 151° |
| 2026-04-20 18:52 | 26.33279 | 43.75697 | 2568 ft | 148 kts | 152° |
| 2026-04-20 18:52 | 26.32366 | 43.76227 | 2366 ft | 147 kts | 152° |
| 2026-04-20 18:52 | 26.31472 | 43.76737 | 2168 ft | 141 kts | 152° |
| 2026-04-20 18:53 | 26.30660 | 43.77198 | 2136 ft | 116 kts | 153° |
| 2026-04-20 18:53 | 26.30077 | 43.77530 | 2131 ft | 72 kts | 153° |
| 2026-04-20 18:53 | 26.29771 | 43.77696 | 2134 ft | 29 kts | 162° |
| 2026-04-20 18:53 | 26.29623 | 43.77726 | 2134 ft | 19 kts | 179° |
| 2026-04-20 18:54 | 26.29506 | 43.77721 | 2133 ft | 11 kts | 183° |
| 2026-04-20 18:54 | 26.29482 | 43.77720 | 2133 ft | 2 kts | 184° |
| 2026-04-20 18:54 | 26.29455 | 43.77713 | 2132 ft | 6 kts | 204° |
| 2026-04-20 18:54 | 26.29428 | 43.77673 | 2132 ft | 8 kts | 261° |
| 2026-04-20 18:55 | 26.29461 | 43.77626 | 2131 ft | 8 kts | 334° |
| 2026-04-20 18:55 | 26.29513 | 43.77598 | 2132 ft | 8 kts | 334° |
| 2026-04-20 18:55 | 26.29567 | 43.77569 | 2130 ft | 9 kts | 334° |
| 2026-04-20 18:55 | 26.29634 | 43.77531 | 2132 ft | 12 kts | 332° |
| 2026-04-20 18:56 | 26.29711 | 43.77486 | 2133 ft | 13 kts | 333° |
| 2026-04-20 18:56 | 26.29788 | 43.77442 | 2133 ft | 13 kts | 333° |
| 2026-04-20 18:56 | 26.29869 | 43.77395 | 2133 ft | 13 kts | 331° |
| 2026-04-20 18:56 | 26.29948 | 43.77350 | 2133 ft | 13 kts | 333° |
| 2026-04-20 18:57 | 26.30026 | 43.77306 | 2133 ft | 12 kts | 333° |
| 2026-04-20 18:57 | 26.30102 | 43.77263 | 2132 ft | 12 kts | 333° |
| 2026-04-20 18:57 | 26.30177 | 43.77222 | 2134 ft | 12 kts | 334° |
| 2026-04-20 18:57 | 26.30248 | 43.77183 | 2134 ft | 11 kts | 333° |
| 2026-04-20 18:58 | 26.30317 | 43.77144 | 2135 ft | 11 kts | 333° |
| 2026-04-20 18:58 | 26.30337 | 43.77098 | 2135 ft | 7 kts | 257° |
| 2026-04-20 18:58 | 26.30318 | 43.77054 | 2135 ft | 1 kts | 242° |